KPTB/PTB METAR and TAF weather

Enter ICAO airport designator
Station Type Date Time Source
KPTB METAR 2022/06/28 15:35 UTC NOAA

KPTB 281535Z AUTO 05007KT 10SM CLR 24/09 A3024 RMK AO2 T02400094


Station Type Date Time Source
KPTB Decoded METAR 2022/06/28 15:35 UTC NOAA

Petersburg, Dinwiddie County Airport, VA, United States (KPTB) 37-11N 077-31W
Jun 28, 2022 - 11:35 AM EDT / 2022.06.28 1535 UTC
Wind: from the NE (050 degrees) at 8 MPH (7 KT):0
Visibility: 10 mile(s):0
Sky conditions: clear
Temperature: 75.2 F (24.0 C)
Dew Point: 48.9 F (9.4 C)
Relative Humidity: 39%
Pressure (altimeter): 30.24 in. Hg (1024 hPa)
ob: KPTB 281535Z AUTO 05007KT 10SM CLR 24/09 A3024 RMK AO2 T02400094
cycle: 15

Station Type Date Time Source
KPTB TAF UTC NOAA

Error!

Example: see airport list